createdAt,value
2022-11-29T00:00:19.810Z,36.22
2022-11-29T00:01:27.515Z,36.50
2022-11-29T00:02:29.869Z,36.72
2022-11-29T00:03:32.399Z,36.38
2022-11-29T00:04:34.697Z,35.45
2022-11-29T00:05:37.198Z,35.17
2022-11-29T00:06:40.167Z,37.10
2022-11-29T00:07:42.893Z,35.50
2022-11-29T00:08:45.839Z,35.35
2022-11-29T00:09:48.018Z,35.47
2022-11-29T00:10:50.703Z,36.38
2022-11-29T00:12:11.642Z,33.70
2022-11-29T00:13:14.242Z,32.90
2022-11-29T00:14:19.111Z,33.35
2022-11-29T00:15:21.493Z,39.42
2022-11-29T00:16:23.973Z,33.47
2022-11-29T00:17:26.406Z,34.20
2022-11-29T00:18:28.732Z,34.28
2022-11-29T00:19:33.118Z,31.60
2022-11-29T00:20:35.982Z,31.88
2022-11-29T00:21:38.707Z,31.13
2022-11-29T00:22:41.053Z,32.13
2022-11-29T00:23:43.406Z,32.60
2022-11-29T00:24:45.765Z,32.13
2022-11-29T00:25:49.568Z,29.48
2022-11-29T00:26:52.279Z,29.83
2022-11-29T00:27:54.622Z,29.65
2022-11-29T00:28:57.069Z,29.35
2022-11-29T00:29:59.375Z,27.92
2022-11-29T00:31:01.799Z,27.88
2022-11-29T00:32:04.520Z,28.58
2022-11-29T00:33:06.786Z,28.13
2022-11-29T00:34:10.942Z,27.58
2022-11-29T00:35:13.791Z,28.95
2022-11-29T00:36:16.621Z,27.48
2022-11-29T00:37:19.866Z,26.85
2022-11-29T00:38:22.055Z,27.38
2022-11-29T00:39:24.665Z,26.20
2022-11-29T00:40:27.013Z,27.60
2022-11-29T00:41:29.374Z,25.52
2022-11-29T00:42:31.862Z,28.38
2022-11-29T00:43:34.534Z,25.50
2022-11-29T00:44:36.920Z,26.17
2022-11-29T00:45:39.234Z,26.33
2022-11-29T00:46:41.572Z,26.75
2022-11-29T00:47:43.801Z,26.90
2022-11-29T00:48:46.050Z,27.30
2022-11-29T00:49:48.415Z,25.27
2022-11-29T00:50:50.696Z,25.15
2022-11-29T00:51:52.878Z,25.58
2022-11-29T00:52:55.283Z,26.83
2022-11-29T00:53:57.622Z,26.42
2022-11-29T00:54:59.992Z,25.92
2022-11-29T00:56:04.773Z,25.85
2022-11-29T00:57:07.135Z,26.05
2022-11-29T00:58:09.640Z,25.65
2022-11-29T00:59:11.965Z,26.45
2022-11-29T01:00:14.883Z,25.88
2022-11-29T01:01:17.785Z,26.23
2022-11-29T01:02:20.149Z,26.30
2022-11-29T01:03:23.112Z,27.05
2022-11-29T01:04:25.670Z,26.83
2022-11-29T01:05:27.833Z,25.83
2022-11-29T01:06:30.147Z,27.23
2022-11-29T01:07:32.552Z,27.00
2022-11-29T01:08:35.358Z,26.30
2022-11-29T01:09:37.596Z,26.48
2022-11-29T01:10:40.089Z,26.48
2022-11-29T01:11:42.416Z,27.42
2022-11-29T01:12:44.636Z,24.88
2022-11-29T01:13:47.974Z,25.23
2022-11-29T01:14:50.223Z,24.35
2022-11-29T01:15:56.901Z,24.25
2022-11-29T01:16:59.600Z,23.73
2022-11-29T01:18:02.065Z,25.80
2022-11-29T01:19:04.884Z,25.45
2022-11-29T01:20:10.534Z,24.20
2022-11-29T01:21:17.825Z,24.83
2022-11-29T01:22:20.095Z,25.20
2022-11-29T01:23:22.315Z,25.60
2022-11-29T01:24:24.627Z,23.58
2022-11-29T01:25:27.025Z,24.08
2022-11-29T01:26:31.204Z,24.92
2022-11-29T01:27:33.757Z,22.63
2022-11-29T01:28:37.864Z,23.98
2022-11-29T01:29:40.595Z,27.02
2022-11-29T01:30:42.919Z,24.55
2022-11-29T01:31:45.236Z,24.77
2022-11-29T01:32:47.598Z,22.88
2022-11-29T01:33:54.303Z,25.08
2022-11-29T01:34:57.343Z,25.58
2022-11-29T01:36:01.663Z,23.15
2022-11-29T01:37:04.277Z,25.25
2022-11-29T01:38:07.104Z,26.02
2022-11-29T01:39:09.313Z,24.48
2022-11-29T01:40:12.041Z,25.17
2022-11-29T01:41:17.286Z,24.58
2022-11-29T01:42:19.606Z,24.98
2022-11-29T01:43:21.780Z,22.92
2022-11-29T01:44:24.067Z,24.58
2022-11-29T01:45:27.162Z,24.63
2022-11-29T01:46:35.615Z,24.17
2022-11-29T01:47:41.734Z,23.60
2022-11-29T01:48:43.991Z,24.05
2022-11-29T01:49:48.473Z,22.95
2022-11-29T01:50:51.495Z,25.10
2022-11-29T01:52:04.906Z,23.77
2022-11-29T01:53:08.843Z,23.40
2022-11-29T01:54:12.692Z,24.13
2022-11-29T01:55:15.086Z,22.83
2022-11-29T01:56:17.680Z,24.77
2022-11-29T01:57:20.989Z,23.85
2022-11-29T01:58:23.622Z,23.63
2022-11-29T01:59:28.502Z,24.90
2022-11-29T02:00:30.784Z,21.77
2022-11-29T02:01:34.824Z,23.30
2022-11-29T02:02:42.665Z,23.75
2022-11-29T02:03:44.979Z,24.45
2022-11-29T02:04:48.791Z,25.15
2022-11-29T02:05:52.740Z,22.83
2022-11-29T02:06:55.483Z,23.00
2022-11-29T02:07:59.377Z,23.80
2022-11-29T02:09:02.165Z,23.45
2022-11-29T02:10:07.229Z,24.83
2022-11-29T02:11:15.507Z,24.55
2022-11-29T02:12:24.777Z,23.13
2022-11-29T02:13:43.188Z,23.52
2022-11-29T02:15:41.462Z,23.92
2022-11-29T02:16:44.796Z,20.15
2022-11-29T02:17:55.981Z,23.27
2022-11-29T02:19:13.231Z,22.65
2022-11-29T02:20:34.005Z,23.25
2022-11-29T02:21:40.534Z,22.35
2022-11-29T02:23:01.704Z,24.55
2022-11-29T02:24:15.282Z,25.50
2022-11-29T02:25:45.383Z,22.73
2022-11-29T02:27:06.720Z,22.85
2022-11-29T02:28:50.429Z,23.23
2022-11-29T02:30:17.120Z,20.23
2022-11-29T02:31:34.203Z,22.73
2022-11-29T02:32:36.393Z,23.50
2022-11-29T02:33:53.095Z,23.55
2022-11-29T02:35:33.719Z,25.02
2022-11-29T02:36:57.725Z,21.70
2022-11-29T02:38:05.872Z,22.50
2022-11-29T02:39:34.904Z,24.33
2022-11-29T02:40:58.492Z,25.38
2022-11-29T02:42:55.609Z,22.73
2022-11-29T02:44:07.999Z,22.77
2022-11-29T02:45:39.499Z,22.70
2022-11-29T02:46:55.962Z,21.70
2022-11-29T02:48:13.523Z,21.98
2022-11-29T02:50:10.139Z,23.40
2022-11-29T02:51:28.091Z,22.65
2022-11-29T02:52:42.940Z,22.17
2022-11-29T02:53:48.177Z,22.17
2022-11-29T02:55:05.705Z,22.95
2022-11-29T02:56:40.263Z,21.65
2022-11-29T02:57:50.845Z,22.25
2022-11-29T02:59:22.382Z,22.73
2022-11-29T03:00:25.502Z,21.92
2022-11-29T03:01:37.743Z,22.35
2022-11-29T03:02:51.625Z,22.88
2022-11-29T03:04:09.262Z,23.02
2022-11-29T03:05:32.541Z,23.65
2022-11-29T03:06:34.763Z,22.95
2022-11-29T03:08:02.640Z,23.38
2022-11-29T03:09:16.749Z,22.92
2022-11-29T03:10:50.483Z,22.70
2022-11-29T03:12:05.956Z,21.73
2022-11-29T03:13:20.534Z,22.48
2022-11-29T03:14:28.757Z,22.85
2022-11-29T03:15:50.028Z,24.00
2022-11-29T03:17:12.243Z,21.73
2022-11-29T03:18:23.719Z,22.13
2022-11-29T03:19:41.163Z,21.88
2022-11-29T03:20:55.444Z,23.13
2022-11-29T03:22:24.415Z,23.00
2022-11-29T03:23:26.674Z,20.40
2022-11-29T03:24:57.971Z,21.63
2022-11-29T03:26:20.421Z,21.95
2022-11-29T03:28:09.370Z,18.95
2022-11-29T03:29:33.504Z,21.02
2022-11-29T03:30:40.208Z,21.48
2022-11-29T03:32:16.083Z,21.50
2022-11-29T03:33:46.114Z,21.70
2022-11-29T03:35:24.563Z,21.77
2022-11-29T03:37:05.049Z,23.38
2022-11-29T03:38:40.407Z,19.73
2022-11-29T03:41:05.036Z,22.65
2022-11-29T03:42:14.255Z,22.75
2022-11-29T03:43:22.150Z,23.45
2022-11-29T03:44:29.697Z,22.65
2022-11-29T03:45:48.824Z,23.77
2022-11-29T03:46:57.395Z,23.00
2022-11-29T03:48:09.614Z,23.55
2022-11-29T03:49:19.580Z,22.92
2022-11-29T03:50:28.194Z,21.23
2022-11-29T03:51:54.844Z,20.73
2022-11-29T03:53:08.067Z,23.98
2022-11-29T03:54:15.828Z,21.58
2022-11-29T03:55:52.943Z,22.92
2022-11-29T03:56:56.661Z,22.15
2022-11-29T03:58:23.649Z,21.85
2022-11-29T03:59:25.883Z,23.35
2022-11-29T04:00:48.768Z,22.50
2022-11-29T04:02:24.560Z,21.65
2022-11-29T04:05:07.209Z,21.00
2022-11-29T04:06:27.516Z,20.13
2022-11-29T04:08:03.236Z,21.70
2022-11-29T04:09:50.492Z,23.95
2022-11-29T04:11:11.864Z,22.27
2022-11-29T04:12:35.730Z,21.10
2022-11-29T04:13:56.459Z,22.45
2022-11-29T04:15:25.345Z,23.65
2022-11-29T04:17:05.801Z,20.77
2022-11-29T04:18:26.613Z,22.65
2022-11-29T04:19:44.411Z,21.77
2022-11-29T04:20:52.833Z,22.50
2022-11-29T04:22:30.306Z,23.20
2022-11-29T04:24:09.528Z,22.85
2022-11-29T04:25:48.942Z,21.05
2022-11-29T04:27:14.410Z,22.63
2022-11-29T04:28:30.919Z,22.40
2022-11-29T04:29:36.273Z,21.35
2022-11-29T04:31:12.659Z,23.60
2022-11-29T04:32:50.402Z,22.38
2022-11-29T04:34:14.953Z,21.98
2022-11-29T04:35:36.019Z,22.52
2022-11-29T04:36:47.321Z,23.05
2022-11-29T04:38:11.336Z,22.25
2022-11-29T04:39:38.344Z,22.63
2022-11-29T04:41:05.396Z,22.58
2022-11-29T04:42:47.771Z,21.13
2022-11-29T04:45:04.709Z,20.75
2022-11-29T04:46:19.362Z,20.73
2022-11-29T04:47:50.095Z,21.33
2022-11-29T04:49:10.380Z,20.05
2022-11-29T04:50:21.325Z,20.00
2022-11-29T04:51:35.478Z,22.95
2022-11-29T04:53:08.896Z,22.90
2022-11-29T04:54:22.986Z,21.73
2022-11-29T04:55:31.151Z,21.15
2022-11-29T04:56:41.453Z,23.25
2022-11-29T04:57:49.737Z,26.65
2022-11-29T04:59:03.826Z,25.92
2022-11-29T05:00:38.899Z,25.77
2022-11-29T05:02:10.954Z,28.83
2022-11-29T05:03:45.741Z,23.65
2022-11-29T05:05:01.129Z,20.50
2022-11-29T05:06:15.558Z,21.50
2022-11-29T05:07:22.362Z,22.30
2022-11-29T05:08:40.361Z,23.80
2022-11-29T05:10:18.529Z,20.95
2022-11-29T05:11:27.951Z,19.85
2022-11-29T05:12:43.309Z,21.80
2022-11-29T05:13:52.972Z,21.10
2022-11-29T05:15:03.147Z,20.75
2022-11-29T05:16:49.086Z,23.05
2022-11-29T05:18:16.831Z,20.83
2022-11-29T05:19:49.189Z,21.92
2022-11-29T05:21:05.387Z,19.52
2022-11-29T05:22:20.961Z,20.33
2022-11-29T05:24:00.812Z,19.92
2022-11-29T05:25:33.937Z,20.17
2022-11-29T05:26:56.997Z,20.83
2022-11-29T05:28:20.620Z,24.45
2022-11-29T05:29:31.715Z,23.08
2022-11-29T05:31:15.569Z,23.13
2022-11-29T05:32:35.098Z,20.35
2022-11-29T05:34:07.968Z,21.42
2022-11-29T05:35:29.318Z,21.52
2022-11-29T05:36:56.471Z,19.65
2022-11-29T05:38:14.299Z,18.27
2022-11-29T05:39:39.944Z,19.95
2022-11-29T05:40:53.983Z,18.92
2022-11-29T05:42:23.490Z,19.88
2022-11-29T05:43:37.982Z,18.10
2022-11-29T05:44:44.838Z,25.25
2022-11-29T05:46:00.686Z,25.23
2022-11-29T05:47:10.381Z,25.15
2022-11-29T05:48:27.017Z,28.50
2022-11-29T05:49:41.886Z,31.50
2022-11-29T05:50:55.151Z,27.77
2022-11-29T05:52:20.828Z,27.38
2022-11-29T05:53:34.354Z,26.60
2022-11-29T05:54:44.709Z,23.45
2022-11-29T05:56:02.786Z,26.10
2022-11-29T05:57:17.661Z,23.58
2022-11-29T05:58:33.601Z,23.15
2022-11-29T05:59:39.179Z,26.33
2022-11-29T06:00:50.462Z,26.40
2022-11-29T06:01:57.020Z,24.50
2022-11-29T06:03:25.640Z,23.67
2022-11-29T06:04:46.313Z,24.42
2022-11-29T06:06:03.072Z,24.10
2022-11-29T06:07:34.620Z,25.35
2022-11-29T06:08:37.170Z,24.13
2022-11-29T06:09:48.902Z,24.77
2022-11-29T06:11:14.110Z,23.67
2022-11-29T06:12:23.430Z,24.02
2022-11-29T06:14:06.699Z,23.27
2022-11-29T06:15:37.200Z,20.85
2022-11-29T06:16:59.689Z,20.67
2022-11-29T06:19:53.676Z,19.65
2022-11-29T06:21:00.126Z,20.45
2022-11-29T06:22:21.562Z,19.90
2022-11-29T06:23:36.764Z,20.05
2022-11-29T06:24:48.072Z,23.40
2022-11-29T06:26:04.099Z,22.15
2022-11-29T06:27:13.190Z,22.95
2022-11-29T06:28:22.844Z,25.02
2022-11-29T06:29:50.026Z,27.20
2022-11-29T06:30:55.189Z,26.23
2022-11-29T06:32:19.557Z,27.35
2022-11-29T06:33:31.820Z,27.40
2022-11-29T06:34:56.711Z,29.35
2022-11-29T06:36:20.001Z,27.77
2022-11-29T06:37:45.265Z,27.88
2022-11-29T06:38:47.972Z,25.23
2022-11-29T06:39:50.698Z,24.88
2022-11-29T06:41:01.545Z,24.73
2022-11-29T06:42:04.640Z,23.80
2022-11-29T06:43:07.106Z,25.65
2022-11-29T06:44:10.581Z,22.58
2022-11-29T06:45:14.657Z,21.75
2022-11-29T06:46:55.873Z,20.02
2022-11-29T06:48:03.615Z,20.17
2022-11-29T06:49:10.121Z,21.52
2022-11-29T06:50:30.902Z,18.95
2022-11-29T06:51:47.807Z,19.48
2022-11-29T06:54:36.039Z,19.40
2022-11-29T06:56:19.620Z,18.88
2022-11-29T06:57:30.687Z,18.48
2022-11-29T06:58:40.590Z,19.35
2022-11-29T07:00:16.443Z,18.35
2022-11-29T07:03:11.967Z,17.38
2022-11-29T07:04:46.792Z,16.83
2022-11-29T07:05:49.821Z,17.42
2022-11-29T07:06:52.711Z,17.40
2022-11-29T07:08:02.317Z,17.58
2022-11-29T07:09:16.729Z,18.92
2022-11-29T07:10:20.797Z,16.90
2022-11-29T07:12:26.614Z,15.48
2022-11-29T07:13:29.196Z,15.32
2022-11-29T07:14:32.163Z,18.17
2022-11-29T07:15:36.964Z,15.30
2022-11-29T07:16:45.224Z,17.70
2022-11-29T07:18:06.971Z,16.35
2022-11-29T07:19:20.791Z,16.25
2022-11-29T07:20:51.287Z,16.15
2022-11-29T07:22:19.701Z,17.27
2022-11-29T07:23:29.058Z,17.27
2022-11-29T07:24:39.628Z,17.75
2022-11-29T07:26:59.694Z,16.98
2022-11-29T07:28:08.725Z,17.10
2022-11-29T07:29:26.090Z,19.25
2022-11-29T07:30:38.720Z,20.88
2022-11-29T07:32:12.498Z,17.40
2022-11-29T07:33:32.354Z,18.95
2022-11-29T07:34:47.202Z,25.00
2022-11-29T07:36:24.138Z,21.40
2022-11-29T07:37:40.193Z,21.63
2022-11-29T07:39:10.572Z,21.65
2022-11-29T07:40:51.646Z,18.77
2022-11-29T07:42:18.364Z,15.35
2022-11-29T07:43:20.536Z,15.50
2022-11-29T07:44:56.239Z,14.63
2022-11-29T07:46:00.340Z,14.73
2022-11-29T07:47:02.641Z,14.52
2022-11-29T07:48:05.297Z,12.70
2022-11-29T07:49:10.816Z,15.05
2022-11-29T07:50:16.813Z,14.55
2022-11-29T07:51:22.214Z,13.98
2022-11-29T07:52:24.938Z,15.32
2022-11-29T07:53:29.295Z,13.10
2022-11-29T07:54:31.598Z,14.93
2022-11-29T07:55:35.235Z,13.55
2022-11-29T07:56:37.574Z,14.68
2022-11-29T07:57:40.032Z,17.25
2022-11-29T07:58:43.742Z,14.32
2022-11-29T07:59:46.500Z,14.13
2022-11-29T08:00:49.083Z,14.13
2022-11-29T08:01:51.930Z,14.77
2022-11-29T08:02:54.288Z,15.43
2022-11-29T08:03:56.593Z,17.40
2022-11-29T08:05:01.877Z,15.52
2022-11-29T08:06:04.432Z,16.50
2022-11-29T08:07:07.518Z,20.77
2022-11-29T08:08:09.896Z,21.27
2022-11-29T08:09:12.245Z,20.33
2022-11-29T08:10:16.918Z,22.05
2022-11-29T08:11:19.188Z,22.40
2022-11-29T08:12:21.613Z,21.20
2022-11-29T08:13:24.321Z,18.73
2022-11-29T08:14:27.289Z,17.00
2022-11-29T08:15:29.818Z,47.30
2022-11-29T08:16:32.732Z,43.58
2022-11-29T08:17:34.992Z,37.55
2022-11-29T08:18:37.943Z,39.47
2022-11-29T08:19:40.221Z,33.65
2022-11-29T08:20:43.437Z,43.42
2022-11-29T08:21:47.868Z,35.92
2022-11-29T08:23:00.023Z,18.65
2022-11-29T08:24:02.301Z,18.88
2022-11-29T08:25:06.114Z,21.85
2022-11-29T08:26:08.675Z,16.58
2022-11-29T08:27:11.150Z,18.20
2022-11-29T08:28:14.480Z,15.75
2022-11-29T08:29:16.926Z,15.68
2022-11-29T08:30:22.392Z,14.10
2022-11-29T08:31:25.235Z,15.60
2022-11-29T08:32:28.168Z,14.00
2022-11-29T08:33:31.450Z,14.10
2022-11-29T08:34:33.802Z,13.77
2022-11-29T08:35:36.219Z,15.15
2022-11-29T08:36:39.113Z,13.88
2022-11-29T08:37:41.338Z,14.55
2022-11-29T08:38:44.426Z,13.63
2022-11-29T08:39:46.675Z,14.68
2022-11-29T08:40:48.916Z,14.20
2022-11-29T08:41:51.161Z,15.07
2022-11-29T08:42:58.455Z,14.02
2022-11-29T08:44:00.750Z,14.20
2022-11-29T08:45:04.360Z,14.77
2022-11-29T08:46:07.368Z,14.35
2022-11-29T08:47:29.599Z,15.02
2022-11-29T08:48:32.074Z,13.82
2022-11-29T08:49:34.403Z,13.88
2022-11-29T08:50:37.449Z,15.30
2022-11-29T08:51:39.796Z,14.88
2022-11-29T08:53:03.577Z,13.38
2022-11-29T08:54:06.065Z,15.38
2022-11-29T08:55:08.841Z,14.55
2022-11-29T08:56:53.295Z,13.27
2022-11-29T08:57:40.570Z,14.00
2022-11-29T08:58:43.306Z,13.35
2022-11-29T08:59:46.140Z,12.77
2022-11-29T09:00:48.856Z,12.45
2022-11-29T09:01:51.115Z,12.10
2022-11-29T09:02:53.729Z,13.93
2022-11-29T09:04:00.778Z,13.43
2022-11-29T09:05:04.999Z,13.02
2022-11-29T09:06:12.500Z,13.93
2022-11-29T09:07:16.698Z,12.75
2022-11-29T09:08:19.302Z,12.98
2022-11-29T09:09:22.153Z,12.70
2022-11-29T09:10:24.479Z,12.02
2022-11-29T09:11:28.949Z,13.82
2022-11-29T09:12:39.275Z,12.23
2022-11-29T09:13:47.946Z,13.57
2022-11-29T09:14:50.219Z,12.60
2022-11-29T09:15:52.503Z,12.50
2022-11-29T09:16:54.918Z,12.88
2022-11-29T09:17:57.822Z,13.80
2022-11-29T09:19:01.781Z,13.75
2022-11-29T09:21:12.973Z,13.18
2022-11-29T09:22:15.355Z,12.48
2022-11-29T09:23:17.653Z,13.23
2022-11-29T09:24:20.865Z,12.85
2022-11-29T09:25:23.150Z,13.00
2022-11-29T09:26:28.108Z,14.70
2022-11-29T09:27:31.220Z,12.60
2022-11-29T09:28:34.231Z,13.30
2022-11-29T09:29:37.057Z,13.18
2022-11-29T09:30:39.877Z,13.35
2022-11-29T09:31:45.354Z,13.48
2022-11-29T09:32:48.832Z,13.60
2022-11-29T09:33:51.211Z,13.77
2022-11-29T09:34:53.524Z,12.93
2022-11-29T09:35:58.569Z,12.15
2022-11-29T09:37:03.358Z,14.02
2022-11-29T09:38:05.992Z,13.43
2022-11-29T09:39:10.351Z,14.20
2022-11-29T09:40:19.791Z,12.93
2022-11-29T09:41:30.836Z,13.35
2022-11-29T09:42:33.412Z,13.07
2022-11-29T09:44:18.944Z,12.80
2022-11-29T09:45:30.642Z,13.00
2022-11-29T09:46:45.355Z,13.05
2022-11-29T09:47:57.990Z,13.07
2022-11-29T09:49:22.334Z,13.10
2022-11-29T09:50:52.406Z,12.50
2022-11-29T09:52:22.754Z,11.57
2022-11-29T09:53:38.102Z,11.75
2022-11-29T09:55:07.664Z,11.80
2022-11-29T09:56:32.613Z,13.95
2022-11-29T09:57:35.739Z,12.68
2022-11-29T09:58:50.646Z,11.93
2022-11-29T10:00:01.719Z,11.95
2022-11-29T10:01:08.584Z,12.27
2022-11-29T10:02:21.991Z,11.95
2022-11-29T10:03:39.100Z,12.13
2022-11-29T10:04:46.731Z,11.88
2022-11-29T10:05:56.395Z,11.68
2022-11-29T10:07:02.785Z,11.20
2022-11-29T10:08:21.142Z,11.57
2022-11-29T10:09:56.531Z,12.73
2022-11-29T10:11:22.284Z,12.55
2022-11-29T10:12:37.943Z,11.20
2022-11-29T10:13:45.898Z,11.65
2022-11-29T10:14:56.788Z,12.27
2022-11-29T10:16:06.509Z,12.13
2022-11-29T10:17:26.528Z,11.93
2022-11-29T10:18:38.734Z,11.90
2022-11-29T10:20:17.352Z,11.57
2022-11-29T10:21:28.621Z,11.63
2022-11-29T10:22:43.969Z,11.70
2022-11-29T10:23:53.232Z,10.70
2022-11-29T10:25:02.854Z,10.88
2022-11-29T10:26:08.875Z,12.38
2022-11-29T10:27:18.797Z,11.40
2022-11-29T10:28:36.072Z,10.98
2022-11-29T10:29:38.738Z,11.82
2022-11-29T10:30:42.796Z,11.10
2022-11-29T10:31:49.535Z,11.32
2022-11-29T10:33:01.478Z,11.82
2022-11-29T10:34:14.000Z,11.77
2022-11-29T10:35:19.577Z,11.38
2022-11-29T10:36:41.265Z,11.50
2022-11-29T10:38:01.510Z,12.00
2022-11-29T10:39:14.778Z,11.57
2022-11-29T10:40:21.767Z,11.43
2022-11-29T10:41:25.606Z,11.73
2022-11-29T10:42:47.878Z,11.35
2022-11-29T10:43:51.854Z,11.43
2022-11-29T10:44:54.051Z,12.05
2022-11-29T10:45:56.999Z,12.25
2022-11-29T10:47:06.593Z,12.85
2022-11-29T10:48:17.043Z,12.00
2022-11-29T10:49:21.666Z,11.90
2022-11-29T10:50:27.434Z,11.15
2022-11-29T10:51:31.605Z,10.95
2022-11-29T10:52:34.140Z,11.32
2022-11-29T10:53:37.849Z,12.77
2022-11-29T10:54:43.172Z,13.60
2022-11-29T10:56:02.552Z,12.35
2022-11-29T10:57:19.781Z,10.65
2022-11-29T10:58:28.242Z,12.95
2022-11-29T10:59:33.276Z,13.85
2022-11-29T11:00:54.699Z,13.32
2022-11-29T11:01:58.048Z,13.27
2022-11-29T11:03:17.368Z,14.68
2022-11-29T11:04:37.441Z,13.38
2022-11-29T11:05:39.874Z,12.18
2022-11-29T11:06:44.335Z,13.02
2022-11-29T11:07:57.660Z,12.63
2022-11-29T11:09:19.178Z,11.23
2022-11-29T11:10:27.810Z,10.90
2022-11-29T11:11:33.789Z,11.80
2022-11-29T11:12:37.248Z,11.60
2022-11-29T11:13:41.157Z,11.32
2022-11-29T11:14:44.829Z,10.95
2022-11-29T11:15:49.714Z,10.30
2022-11-29T11:16:52.828Z,11.55
2022-11-29T11:18:04.574Z,9.93
2022-11-29T11:19:32.550Z,10.65
2022-11-29T11:20:41.297Z,10.75
2022-11-29T11:21:43.690Z,10.98
2022-11-29T11:22:57.868Z,10.57
2022-11-29T11:24:04.848Z,11.23
2022-11-29T11:25:28.584Z,10.40
2022-11-29T11:26:45.471Z,10.07
2022-11-29T11:27:48.124Z,9.60
2022-11-29T11:29:00.374Z,10.38
2022-11-29T11:30:07.630Z,11.18
2022-11-29T11:31:11.922Z,10.57
2022-11-29T11:32:20.893Z,11.02
2022-11-29T11:33:30.424Z,10.57
2022-11-29T11:34:34.463Z,9.50
2022-11-29T11:35:37.455Z,10.43
2022-11-29T11:36:39.657Z,10.38
2022-11-29T11:37:42.199Z,9.93
2022-11-29T11:38:59.818Z,10.07
2022-11-29T11:40:29.565Z,9.15
2022-11-29T11:41:54.538Z,9.98
2022-11-29T11:42:59.524Z,10.68
2022-11-29T11:44:04.541Z,10.80
2022-11-29T11:45:12.837Z,10.40
2022-11-29T11:46:17.956Z,9.55
2022-11-29T11:47:24.606Z,10.23
2022-11-29T11:48:27.738Z,9.88
2022-11-29T11:49:47.094Z,10.35
2022-11-29T11:50:56.500Z,9.98
2022-11-29T11:52:00.699Z,9.95
2022-11-29T11:53:08.465Z,10.70
2022-11-29T11:54:15.507Z,9.38
2022-11-29T11:55:35.948Z,10.13
2022-11-29T11:56:38.322Z,10.30
2022-11-29T11:57:40.555Z,10.80
2022-11-29T11:58:52.165Z,11.05
2022-11-29T12:00:06.437Z,10.52
2022-11-29T12:01:15.520Z,10.57
2022-11-29T12:03:37.906Z,12.20
2022-11-29T12:04:43.328Z,11.32
2022-11-29T12:05:51.861Z,11.63
2022-11-29T12:07:01.025Z,11.73
2022-11-29T12:08:08.673Z,11.48
2022-11-29T12:09:34.266Z,12.27
2022-11-29T12:10:40.521Z,11.98
2022-11-29T12:12:00.557Z,11.95
2022-11-29T12:13:03.165Z,11.93
2022-11-29T12:14:07.242Z,12.38
2022-11-29T12:16:39.087Z,11.13
2022-11-29T12:17:47.160Z,11.05
2022-11-29T12:18:55.568Z,9.82
2022-11-29T12:20:22.679Z,9.98
2022-11-29T12:21:29.498Z,11.35
2022-11-29T12:22:42.643Z,12.30
2022-11-29T12:24:01.488Z,11.70
2022-11-29T12:25:11.028Z,11.13
2022-11-29T12:26:41.221Z,10.02
2022-11-29T12:27:40.727Z,10.57
2022-11-29T12:28:45.588Z,10.02
2022-11-29T12:29:47.886Z,10.30
2022-11-29T12:31:02.716Z,10.15
2022-11-29T12:32:04.933Z,10.15
2022-11-29T12:33:29.079Z,10.13
2022-11-29T12:35:03.684Z,10.82
2022-11-29T12:36:24.569Z,11.30
2022-11-29T12:37:50.660Z,11.10
2022-11-29T12:39:14.983Z,10.55
2022-11-29T12:40:22.859Z,9.85
2022-11-29T12:41:43.914Z,10.05
2022-11-29T12:43:15.527Z,10.68
2022-11-29T12:44:29.812Z,10.90
2022-11-29T12:45:33.064Z,10.18
2022-11-29T12:46:36.369Z,9.50
2022-11-29T12:48:22.658Z,9.93
2022-11-29T12:49:41.434Z,9.90
2022-11-29T12:50:55.587Z,9.80
2022-11-29T12:52:15.253Z,11.25
2022-11-29T12:53:40.561Z,10.23
2022-11-29T12:55:20.891Z,10.30
2022-11-29T12:56:29.087Z,11.15
2022-11-29T12:58:10.032Z,10.35
2022-11-29T12:59:35.517Z,9.38
2022-11-29T13:00:57.854Z,10.15
2022-11-29T13:02:00.617Z,11.18
2022-11-29T13:03:08.893Z,10.60
2022-11-29T13:04:26.826Z,10.70
2022-11-29T13:05:42.274Z,11.25
2022-11-29T13:06:52.932Z,12.10
2022-11-29T13:08:16.332Z,11.80
2022-11-29T13:09:44.755Z,11.38
2022-11-29T13:11:01.069Z,11.18
2022-11-29T13:12:33.349Z,10.65
2022-11-29T13:13:46.754Z,12.27
2022-11-29T13:15:32.682Z,13.07
2022-11-29T13:16:59.170Z,11.32
2022-11-29T13:18:11.578Z,11.07
2022-11-29T13:19:26.159Z,11.73
2022-11-29T13:20:37.619Z,10.80
2022-11-29T13:21:58.219Z,10.68
2022-11-29T13:23:45.548Z,11.25
2022-11-29T13:24:56.551Z,11.70
2022-11-29T13:26:04.285Z,11.25
2022-11-29T13:27:08.085Z,11.82
2022-11-29T13:28:27.733Z,11.82
2022-11-29T13:29:30.583Z,10.23
2022-11-29T13:30:35.949Z,10.93
2022-11-29T13:31:39.445Z,11.05
2022-11-29T13:32:48.658Z,10.13
2022-11-29T13:33:58.042Z,11.27
2022-11-29T13:35:19.289Z,10.30
2022-11-29T13:36:40.338Z,10.77
2022-11-29T13:37:54.952Z,12.30
2022-11-29T13:39:21.908Z,11.43
2022-11-29T13:40:54.270Z,10.85
2022-11-29T13:42:20.089Z,10.60
2022-11-29T13:44:13.598Z,10.35
2022-11-29T13:45:21.719Z,10.70
2022-11-29T13:46:52.725Z,10.60
2022-11-29T13:47:58.303Z,10.02
2022-11-29T13:49:01.249Z,9.43
2022-11-29T13:50:06.484Z,10.85
2022-11-29T13:51:22.650Z,10.18
2022-11-29T13:52:35.883Z,9.52
2022-11-29T13:53:48.527Z,10.10
2022-11-29T13:55:11.611Z,11.27
2022-11-29T13:56:35.855Z,10.38
2022-11-29T13:58:22.268Z,11.20
2022-11-29T13:59:29.459Z,11.07
2022-11-29T14:00:44.146Z,11.75
2022-11-29T14:01:51.783Z,12.10
2022-11-29T14:03:15.249Z,12.05
2022-11-29T14:04:37.804Z,11.52
2022-11-29T14:05:41.001Z,11.40
2022-11-29T14:06:43.413Z,10.50
2022-11-29T14:08:23.242Z,9.48
2022-11-29T14:09:31.788Z,10.25
2022-11-29T14:10:34.138Z,10.20
2022-11-29T14:11:42.346Z,10.65
2022-11-29T14:12:55.197Z,10.98
2022-11-29T14:14:08.024Z,11.20
2022-11-29T14:15:11.217Z,10.75
2022-11-29T14:16:38.591Z,11.18
2022-11-29T14:17:55.587Z,11.50
2022-11-29T14:19:06.173Z,11.23
2022-11-29T14:20:23.795Z,12.52
2022-11-29T14:21:26.657Z,14.32
2022-11-29T14:22:30.586Z,13.75
2022-11-29T14:23:37.518Z,14.20
2022-11-29T14:24:40.392Z,13.65
2022-11-29T14:26:02.984Z,13.98
2022-11-29T14:27:12.568Z,12.13
2022-11-29T14:28:14.848Z,12.18
2022-11-29T14:29:49.038Z,13.30
2022-11-29T14:30:55.438Z,12.27
2022-11-29T14:32:00.116Z,12.77
2022-11-29T14:34:22.899Z,15.70
2022-11-29T14:35:34.977Z,28.42
2022-11-29T14:36:45.830Z,48.33
2022-11-29T14:38:03.319Z,47.28
2022-11-29T14:39:24.241Z,26.08
2022-11-29T14:40:42.598Z,18.75
2022-11-29T14:42:17.130Z,15.80
2022-11-29T14:43:25.597Z,16.80
2022-11-29T14:44:33.655Z,13.52
2022-11-29T14:45:36.016Z,16.25
2022-11-29T14:46:38.502Z,19.90
2022-11-29T14:47:49.390Z,37.20
2022-11-29T14:48:54.716Z,31.42
2022-11-29T14:49:59.625Z,30.65
2022-11-29T14:51:09.426Z,28.83
2022-11-29T14:52:14.454Z,41.22
2022-11-29T14:53:33.727Z,58.53
2022-11-29T14:54:54.382Z,49.08
2022-11-29T14:56:33.144Z,46.13
2022-11-29T14:57:47.272Z,34.78
2022-11-29T14:59:28.144Z,34.90
2022-11-29T15:00:36.651Z,29.90
2022-11-29T15:01:44.644Z,26.77
2022-11-29T15:02:55.175Z,25.70
2022-11-29T15:03:57.914Z,32.35
2022-11-29T15:05:21.572Z,45.70
2022-11-29T15:06:27.103Z,41.00
2022-11-29T15:07:33.008Z,45.40
2022-11-29T15:08:51.985Z,50.15
2022-11-29T15:09:58.809Z,52.05
2022-11-29T15:11:10.117Z,52.83
2022-11-29T15:12:18.708Z,46.33
2022-11-29T15:13:31.879Z,41.50
2022-11-29T15:15:08.106Z,39.90
2022-11-29T15:16:31.445Z,34.72
2022-11-29T15:17:53.713Z,33.08
2022-11-29T15:19:20.505Z,37.50
2022-11-29T15:20:46.372Z,49.72
2022-11-29T15:22:03.904Z,47.72
2022-11-29T15:23:13.344Z,44.65
2022-11-29T15:24:17.676Z,35.80
2022-11-29T15:25:23.369Z,27.88
2022-11-29T15:26:29.211Z,32.53
2022-11-29T15:27:32.755Z,32.25
2022-11-29T15:28:37.564Z,32.38
2022-11-29T15:29:39.836Z,30.98
2022-11-29T15:30:42.792Z,31.05
2022-11-29T15:31:47.850Z,37.80
2022-11-29T15:32:50.246Z,80.75
2022-11-29T15:33:52.657Z,88.00
2022-11-29T15:34:57.230Z,80.47
2022-11-29T15:36:08.439Z,59.30
2022-11-29T15:37:39.398Z,35.08
2022-11-29T15:38:51.220Z,32.00
2022-11-29T15:40:10.690Z,36.28
2022-11-29T15:41:34.785Z,40.08
2022-11-29T15:42:43.208Z,39.45
2022-11-29T15:43:49.418Z,52.78
2022-11-29T15:44:53.303Z,35.00
2022-11-29T15:45:57.015Z,27.75
2022-11-29T15:47:26.719Z,26.60
2022-11-29T15:48:33.129Z,26.92
2022-11-29T15:49:36.282Z,20.95
2022-11-29T15:50:42.389Z,17.80